createdAt,value
2023-03-05T00:01:41.264Z,2.11
2023-03-05T00:04:11.956Z,2.03
2023-03-05T00:06:39.592Z,1.97
2023-03-05T00:09:07.301Z,2.01
2023-03-05T00:11:36.383Z,2.04
2023-03-05T00:14:05.268Z,2.09
2023-03-05T00:16:32.777Z,2.16
2023-03-05T00:19:01.133Z,2.16
2023-03-05T00:21:30.422Z,2.16
2023-03-05T00:24:07.039Z,2.15
2023-03-05T00:26:41.811Z,2.16
2023-03-05T00:29:12.421Z,2.21
2023-03-05T00:31:41.205Z,2.22
2023-03-05T00:34:11.636Z,2.23
2023-03-05T00:36:40.486Z,2.25
2023-03-05T00:39:08.938Z,2.27
2023-03-05T00:41:38.209Z,2.23
2023-03-05T00:44:07.344Z,2.22
2023-03-05T00:46:35.782Z,2.21
2023-03-05T00:49:03.695Z,2.24
2023-03-05T00:51:32.063Z,2.30
2023-03-05T00:53:59.219Z,2.33
2023-03-05T00:56:28.512Z,2.32
2023-03-05T00:58:57.174Z,2.29
2023-03-05T01:01:24.765Z,2.24
2023-03-05T01:03:58.647Z,2.25
2023-03-05T01:06:25.591Z,2.27
2023-03-05T01:08:52.418Z,2.29
2023-03-05T01:11:19.396Z,2.33
2023-03-05T01:13:46.437Z,2.31
2023-03-05T01:16:15.151Z,2.32
2023-03-05T01:18:42.228Z,2.34
2023-03-05T01:21:09.830Z,2.38
2023-03-05T01:23:37.814Z,2.44
2023-03-05T01:26:05.642Z,2.51
2023-03-05T01:28:33.976Z,2.49
2023-03-05T01:31:00.746Z,2.49
2023-03-05T01:33:29.232Z,2.50
2023-03-05T01:38:37.232Z,2.64
2023-03-05T01:41:04.345Z,2.67
2023-03-05T01:43:31.772Z,2.67
2023-03-05T01:46:24.376Z,2.69
2023-03-05T01:48:59.447Z,2.69
2023-03-05T01:51:31.707Z,2.66
2023-03-05T01:54:00.582Z,2.61
2023-03-05T01:56:31.006Z,2.57
2023-03-05T01:59:03.685Z,2.58
2023-03-05T02:01:39.973Z,2.57
2023-03-05T02:04:10.055Z,2.55
2023-03-05T02:06:38.252Z,2.53
2023-03-05T02:09:08.840Z,2.51
2023-03-05T02:11:36.589Z,2.50
2023-03-05T02:14:05.164Z,2.47
2023-03-05T02:16:40.482Z,2.45
2023-03-05T02:19:11.192Z,2.47
2023-03-05T02:21:43.062Z,2.51
2023-03-05T02:24:15.748Z,2.51
2023-03-05T02:26:45.325Z,2.52
2023-03-05T02:32:00.371Z,2.58
2023-03-05T02:34:27.361Z,2.61
2023-03-05T02:36:56.752Z,2.61
2023-03-05T02:39:25.022Z,2.61
2023-03-05T02:41:52.488Z,2.61
2023-03-05T02:44:19.568Z,2.58
2023-03-05T02:46:47.470Z,2.59
2023-03-05T02:49:14.899Z,2.58
2023-03-05T02:51:41.850Z,2.56
2023-03-05T02:54:11.634Z,2.53
2023-03-05T02:56:40.333Z,2.51
2023-03-05T02:59:07.104Z,2.52
2023-03-05T03:01:34.392Z,2.53
2023-03-05T03:04:01.903Z,2.53
2023-03-05T03:06:28.906Z,2.51
2023-03-05T03:08:59.761Z,2.46
2023-03-05T03:11:35.834Z,2.44
2023-03-05T03:14:02.600Z,2.38
2023-03-05T03:16:29.829Z,2.35
2023-03-05T03:18:56.631Z,2.32
2023-03-05T03:21:25.669Z,2.27
2023-03-05T03:23:53.781Z,2.22
2023-03-05T03:26:25.710Z,2.18
2023-03-05T03:28:54.306Z,2.18
2023-03-05T03:31:23.336Z,2.24
2023-03-05T03:33:51.714Z,2.28
2023-03-05T03:36:20.477Z,2.32
2023-03-05T03:38:47.419Z,2.37
2023-03-05T03:41:21.688Z,2.40
2023-03-05T03:43:50.783Z,2.42
2023-03-05T03:46:19.430Z,2.47
2023-03-05T03:48:52.097Z,2.50
2023-03-05T03:51:18.900Z,2.52
2023-03-05T03:53:45.990Z,2.51
2023-03-05T03:56:13.044Z,2.54
2023-03-05T03:58:39.711Z,2.59
2023-03-05T04:01:06.432Z,2.64
2023-03-05T04:03:35.265Z,2.71
2023-03-05T04:06:02.343Z,2.75
2023-03-05T04:08:29.215Z,2.76
2023-03-05T04:10:56.221Z,2.78
2023-03-05T04:13:23.360Z,2.82
2023-03-05T04:15:51.267Z,2.86
2023-03-05T04:18:22.266Z,2.88
2023-03-05T04:20:50.590Z,2.90
2023-03-05T04:23:17.872Z,2.90
2023-03-05T04:25:44.583Z,2.86
2023-03-05T04:28:11.418Z,2.85
2023-03-05T04:30:40.015Z,2.88
2023-03-05T04:33:08.407Z,2.89
2023-03-05T04:35:35.896Z,2.87
2023-03-05T04:38:07.618Z,2.88
2023-03-05T04:40:35.300Z,2.90
2023-03-05T04:43:02.182Z,2.92
2023-03-05T04:45:29.006Z,2.91
2023-03-05T04:47:56.489Z,2.93
2023-03-05T04:50:24.094Z,2.94
2023-03-05T04:52:51.624Z,2.97
2023-03-05T04:55:20.125Z,2.99
2023-03-05T04:57:46.938Z,3.00
2023-03-05T05:00:17.293Z,3.01
2023-03-05T05:02:46.197Z,3.01
2023-03-05T05:05:15.282Z,2.99
2023-03-05T05:07:42.629Z,2.99
2023-03-05T05:10:11.710Z,2.99
2023-03-05T05:12:40.224Z,3.00
2023-03-05T05:15:09.017Z,2.98
2023-03-05T05:17:36.150Z,2.96
2023-03-05T05:20:06.593Z,2.95
2023-03-05T05:22:34.504Z,2.96
2023-03-05T05:25:02.260Z,2.97
2023-03-05T05:27:28.994Z,3.00
2023-03-05T05:29:57.328Z,3.03
2023-03-05T05:32:24.938Z,3.03
2023-03-05T05:34:54.704Z,3.02
2023-03-05T05:37:21.880Z,3.02
2023-03-05T05:39:50.355Z,3.02
2023-03-05T05:42:17.999Z,3.04
2023-03-05T05:44:45.079Z,3.04
2023-03-05T05:47:14.563Z,3.04
2023-03-05T05:49:41.664Z,3.03
2023-03-05T05:52:09.588Z,3.01
2023-03-05T05:54:36.469Z,3.01
2023-03-05T05:57:03.778Z,3.04
2023-03-05T05:59:30.776Z,3.05
2023-03-05T06:01:57.507Z,3.06
2023-03-05T06:04:25.769Z,3.07
2023-03-05T06:06:52.759Z,3.09
2023-03-05T06:09:19.592Z,3.07
2023-03-05T06:11:46.528Z,3.08
2023-03-05T06:14:13.704Z,3.10
2023-03-05T06:16:40.559Z,3.09
2023-03-05T06:19:09.348Z,3.08
2023-03-05T06:21:37.446Z,3.06
2023-03-05T06:24:05.420Z,3.00
2023-03-05T06:26:32.982Z,2.94
2023-03-05T06:29:00.187Z,2.92
2023-03-05T06:31:28.995Z,2.86
2023-03-05T06:33:58.179Z,2.83
2023-03-05T06:36:25.940Z,2.79
2023-03-05T06:38:55.272Z,2.77
2023-03-05T06:41:24.787Z,2.76
2023-03-05T06:43:52.493Z,2.75
2023-03-05T06:46:23.312Z,2.72
2023-03-05T06:48:51.729Z,2.68
2023-03-05T06:51:21.249Z,2.70
2023-03-05T06:53:49.822Z,2.73
2023-03-05T06:56:20.570Z,2.76
2023-03-05T06:58:49.955Z,2.80
2023-03-05T07:01:18.350Z,2.84
2023-03-05T07:03:49.873Z,2.92
2023-03-05T07:06:17.750Z,2.96
2023-03-05T07:08:48.533Z,2.99
2023-03-05T07:11:18.117Z,3.05
2023-03-05T07:13:51.046Z,3.10
2023-03-05T07:16:20.017Z,3.11
2023-03-05T07:18:56.400Z,3.11
2023-03-05T07:21:25.256Z,3.13
2023-03-05T07:23:56.211Z,3.16
2023-03-05T07:26:25.473Z,3.19
2023-03-05T07:29:00.286Z,3.19
2023-03-05T07:31:45.973Z,3.20
2023-03-05T07:34:17.816Z,3.21
2023-03-05T08:57:52.871Z,4.03
